createdAt,value
2018-10-19T00:00:27.053Z,81.60
2018-10-19T00:01:31.042Z,81.61
2018-10-19T00:02:34.066Z,81.51
2018-10-19T00:03:36.767Z,81.60
2018-10-19T00:04:40.053Z,81.81
2018-10-19T00:05:42.908Z,81.71
2018-10-19T00:06:45.708Z,82.19
2018-10-19T00:07:48.525Z,81.38
2018-10-19T00:08:52.362Z,82.06
2018-10-19T00:09:55.065Z,81.53
2018-10-19T00:10:58.142Z,81.48
2018-10-19T00:12:00.893Z,82.06
2018-10-19T00:13:03.784Z,83.08
2018-10-19T00:14:06.530Z,83.60
2018-10-19T00:15:10.117Z,83.83
2018-10-19T00:16:14.087Z,83.84
2018-10-19T00:17:17.519Z,84.05
2018-10-19T00:18:21.400Z,84.10
2018-10-19T00:19:26.623Z,84.49
2018-10-19T00:20:33.282Z,84.70
2018-10-19T00:21:36.553Z,84.49
2018-10-19T00:22:40.235Z,84.51
2018-10-19T00:23:43.222Z,83.70
2018-10-19T00:24:45.936Z,84.01
2018-10-19T00:25:48.746Z,83.73
2018-10-19T00:26:51.435Z,83.38
2018-10-19T00:27:54.166Z,83.71
2018-10-19T00:28:56.908Z,83.42
2018-10-19T00:30:00.188Z,83.82
2018-10-19T00:31:02.915Z,83.60
2018-10-19T00:32:05.768Z,83.35
2018-10-19T00:33:08.737Z,83.84
2018-10-19T00:34:11.473Z,83.83
2018-10-19T00:35:14.273Z,84.29
2018-10-19T00:36:18.162Z,83.87
2018-10-19T00:37:21.186Z,84.37
2018-10-19T00:38:23.986Z,84.22
2018-10-19T00:39:27.213Z,84.23
2018-10-19T00:40:30.271Z,84.71
2018-10-19T00:41:33.688Z,84.67
2018-10-19T00:42:36.928Z,84.69
2018-10-19T00:43:39.871Z,84.60
2018-10-19T00:44:42.597Z,84.52
2018-10-19T00:45:47.142Z,84.56
2018-10-19T00:46:50.271Z,84.18
2018-10-19T00:47:53.076Z,83.98
2018-10-19T00:48:56.573Z,83.83
2018-10-19T00:49:59.436Z,83.27
2018-10-19T00:51:03.229Z,83.64
2018-10-19T00:52:05.911Z,83.93
2018-10-19T00:53:09.298Z,83.84
2018-10-19T00:54:12.005Z,84.11
2018-10-19T00:55:15.054Z,84.06
2018-10-19T00:56:19.661Z,83.81
2018-10-19T00:57:22.399Z,83.58
2018-10-19T00:58:25.115Z,84.11
2018-10-19T00:59:28.654Z,83.80
2018-10-19T01:00:31.389Z,83.76
2018-10-19T01:01:34.582Z,83.96
2018-10-19T01:02:37.891Z,83.33
2018-10-19T01:03:40.611Z,83.79
2018-10-19T01:04:43.401Z,83.63
2018-10-19T01:05:46.868Z,82.93
2018-10-19T01:06:50.366Z,82.99
2018-10-19T01:07:53.423Z,82.92
2018-10-19T01:08:58.037Z,83.42
2018-10-19T01:10:01.237Z,83.58
2018-10-19T01:11:04.658Z,83.23
2018-10-19T01:12:08.102Z,83.43
2018-10-19T01:13:11.394Z,82.93
2018-10-19T01:14:15.698Z,83.16
2018-10-19T01:15:18.763Z,83.14
2018-10-19T01:16:21.633Z,83.43
2018-10-19T01:17:24.537Z,83.08
2018-10-19T01:18:28.164Z,82.66
2018-10-19T01:19:31.919Z,82.91
2018-10-19T01:20:35.251Z,82.99
2018-10-19T01:21:39.679Z,83.42
2018-10-19T01:22:42.414Z,83.69
2018-10-19T01:23:45.112Z,83.65
2018-10-19T01:24:48.961Z,83.63
2018-10-19T01:25:51.739Z,83.98
2018-10-19T01:26:54.809Z,84.32
2018-10-19T01:27:57.533Z,83.76
2018-10-19T01:29:06.611Z,84.14
2018-10-19T01:30:11.346Z,83.71
2018-10-19T01:31:14.742Z,84.05
2018-10-19T01:32:17.701Z,83.90
2018-10-19T01:33:20.765Z,84.07
2018-10-19T01:34:24.874Z,83.69
2018-10-19T01:35:27.561Z,84.14
2018-10-19T01:36:36.910Z,84.26
2018-10-19T01:37:39.615Z,84.23
2018-10-19T01:38:43.250Z,84.05
2018-10-19T01:39:47.447Z,83.79
2018-10-19T01:40:50.900Z,84.37
2018-10-19T01:41:53.666Z,84.15
2018-10-19T01:42:56.541Z,84.23
2018-10-19T01:44:03.461Z,83.89
2018-10-19T01:45:06.309Z,84.19
2018-10-19T01:46:09.435Z,84.00
2018-10-19T01:47:12.223Z,84.14
2018-10-19T01:48:15.255Z,84.27
2018-10-19T01:49:19.073Z,84.37
2018-10-19T01:50:21.753Z,84.70
2018-10-19T01:51:24.487Z,84.65
2018-10-19T01:52:28.435Z,84.86
2018-10-19T01:53:31.125Z,84.57
2018-10-19T01:54:33.800Z,84.25
2018-10-19T01:55:36.507Z,84.54
2018-10-19T01:56:39.711Z,83.84
2018-10-19T01:57:43.073Z,84.02
2018-10-19T01:58:46.834Z,83.99
2018-10-19T01:59:49.609Z,84.17
2018-10-19T02:00:52.316Z,84.00
2018-10-19T02:01:56.095Z,83.77
2018-10-19T02:03:00.290Z,84.22
2018-10-19T02:04:03.157Z,84.05
2018-10-19T02:05:06.261Z,84.18
2018-10-19T02:06:08.975Z,83.65
2018-10-19T02:07:11.698Z,83.88
2018-10-19T02:08:15.003Z,83.60
2018-10-19T02:09:18.285Z,83.79
2018-10-19T02:10:20.973Z,83.73
2018-10-19T02:11:24.574Z,83.23
2018-10-19T02:12:27.254Z,83.33
2018-10-19T02:13:31.133Z,83.22
2018-10-19T02:14:33.802Z,83.45
2018-10-19T02:15:36.505Z,83.48
2018-10-19T02:16:39.351Z,83.29
2018-10-19T02:17:42.634Z,83.96
2018-10-19T02:18:45.312Z,83.33
2018-10-19T02:19:51.142Z,83.37
2018-10-19T02:20:55.901Z,82.93
2018-10-19T02:21:58.661Z,82.94
2018-10-19T02:23:01.411Z,83.18
2018-10-19T02:24:05.025Z,82.89
2018-10-19T02:25:08.115Z,83.24
2018-10-19T02:26:10.803Z,83.08
2018-10-19T02:27:14.360Z,83.74
2018-10-19T02:28:17.484Z,83.39
2018-10-19T02:29:21.375Z,84.02
2018-10-19T02:30:25.270Z,84.10
2018-10-19T02:31:28.628Z,84.14
2018-10-19T02:32:32.017Z,83.71
2018-10-19T02:33:34.833Z,83.88
2018-10-19T02:34:37.693Z,83.79
2018-10-19T02:35:40.499Z,83.92
2018-10-19T02:36:44.539Z,83.69
2018-10-19T02:37:47.211Z,83.50
2018-10-19T02:38:50.183Z,83.75
2018-10-19T02:39:53.091Z,83.71
2018-10-19T02:40:56.622Z,83.14
2018-10-19T02:41:59.836Z,83.76
2018-10-19T02:43:02.785Z,83.87
2018-10-19T02:44:05.470Z,83.55
2018-10-19T02:45:09.084Z,83.21
2018-10-19T02:46:11.678Z,83.54
2018-10-19T02:47:14.446Z,83.50
2018-10-19T02:48:17.824Z,83.79
2018-10-19T02:49:20.816Z,84.53
2018-10-19T02:50:23.594Z,85.20
2018-10-19T02:51:27.090Z,85.07
2018-10-19T02:52:29.780Z,85.22
2018-10-19T02:53:32.473Z,85.16
2018-10-19T02:54:35.374Z,85.00
2018-10-19T02:55:38.337Z,84.62
2018-10-19T02:56:41.675Z,84.80
2018-10-19T02:57:44.378Z,84.83
2018-10-19T02:58:47.046Z,84.94
2018-10-19T02:59:49.761Z,85.12
2018-10-19T03:00:52.435Z,84.60
2018-10-19T03:01:55.428Z,84.89
2018-10-19T03:02:58.148Z,84.77
2018-10-19T03:04:00.856Z,84.82
2018-10-19T03:05:03.595Z,84.73
2018-10-19T03:06:06.632Z,85.20
2018-10-19T03:07:09.320Z,84.70
2018-10-19T03:08:12.530Z,85.25
2018-10-19T03:09:15.294Z,85.42
2018-10-19T03:10:19.092Z,85.18
2018-10-19T03:11:22.513Z,85.69
2018-10-19T03:12:25.200Z,85.17
2018-10-19T03:13:28.446Z,85.44
2018-10-19T03:14:32.248Z,85.32
2018-10-19T03:15:35.773Z,85.22
2018-10-19T03:16:38.435Z,85.33
2018-10-19T03:17:41.156Z,85.28
2018-10-19T03:18:43.843Z,85.28
2018-10-19T03:19:47.658Z,85.20
2018-10-19T03:20:50.661Z,84.87
2018-10-19T03:21:53.930Z,84.66
2018-10-19T03:22:56.690Z,84.47
2018-10-19T03:24:00.704Z,84.96
2018-10-19T03:25:03.379Z,84.64
2018-10-19T03:26:07.354Z,85.17
2018-10-19T03:27:12.617Z,85.47
2018-10-19T03:28:15.264Z,85.74
2018-10-19T03:29:18.339Z,85.60
2018-10-19T03:30:20.938Z,85.77
2018-10-19T03:31:23.631Z,85.60
2018-10-19T03:32:26.359Z,85.28
2018-10-19T03:33:29.508Z,84.86
2018-10-19T03:34:32.183Z,85.38
2018-10-19T03:35:34.864Z,85.62
2018-10-19T03:36:37.590Z,85.07
2018-10-19T03:37:40.296Z,85.09
2018-10-19T03:38:43.630Z,85.35
2018-10-19T03:39:47.989Z,85.28
2018-10-19T03:40:50.691Z,85.42
2018-10-19T03:41:53.447Z,85.19
2018-10-19T03:42:56.754Z,85.51
2018-10-19T03:43:59.449Z,85.91
2018-10-19T03:45:03.131Z,85.85
2018-10-19T03:46:06.888Z,85.67
2018-10-19T03:47:09.618Z,85.78
2018-10-19T03:48:12.514Z,85.76
2018-10-19T03:49:16.449Z,85.58
2018-10-19T03:50:19.948Z,85.98
2018-10-19T03:51:22.986Z,85.25
2018-10-19T03:52:26.423Z,85.32
2018-10-19T03:53:29.994Z,85.67
2018-10-19T03:54:32.715Z,85.38
2018-10-19T03:55:35.554Z,85.26
2018-10-19T03:56:38.268Z,85.15
2018-10-19T03:57:42.099Z,84.94
2018-10-19T03:58:45.220Z,85.29
2018-10-19T03:59:47.956Z,85.68
2018-10-19T04:00:50.644Z,85.45
2018-10-19T04:01:53.317Z,85.64
2018-10-19T04:02:56.052Z,85.69
2018-10-19T04:03:59.983Z,85.46
2018-10-19T04:05:03.172Z,85.93
2018-10-19T04:06:06.810Z,86.34
2018-10-19T04:07:09.500Z,86.53
2018-10-19T04:08:12.210Z,86.75
2018-10-19T04:09:20.407Z,86.33
2018-10-19T04:10:23.276Z,86.29
2018-10-19T04:11:26.432Z,86.23
2018-10-19T04:12:29.889Z,85.77
2018-10-19T04:13:32.562Z,86.06
2018-10-19T04:14:35.340Z,85.79
2018-10-19T04:15:38.068Z,85.63
2018-10-19T04:16:41.933Z,86.09
2018-10-19T04:17:45.123Z,86.07
2018-10-19T04:18:48.343Z,85.92
2018-10-19T04:19:52.030Z,86.29
2018-10-19T04:20:55.233Z,86.09
2018-10-19T04:21:58.191Z,86.46
2018-10-19T04:23:16.855Z,86.40
2018-10-19T04:24:20.449Z,86.38
2018-10-19T04:25:23.404Z,86.77
2018-10-19T04:26:26.097Z,86.65
2018-10-19T04:27:29.539Z,86.57
2018-10-19T04:28:32.977Z,86.64
2018-10-19T04:29:36.018Z,86.57
2018-10-19T04:30:38.827Z,86.81
2018-10-19T04:31:41.539Z,86.67
2018-10-19T04:32:45.266Z,86.69
2018-10-19T04:33:47.990Z,86.73
2018-10-19T04:34:50.701Z,86.47
2018-10-19T04:35:54.343Z,87.09
2018-10-19T04:36:57.067Z,87.10
2018-10-19T04:38:00.581Z,86.83
2018-10-19T04:39:03.422Z,87.12
2018-10-19T04:40:06.922Z,86.59
2018-10-19T04:41:10.070Z,86.30
2018-10-19T04:42:13.127Z,86.54
2018-10-19T04:43:16.415Z,86.18
2018-10-19T04:44:19.086Z,86.31
2018-10-19T04:45:21.782Z,86.53
2018-10-19T04:46:24.722Z,86.18
2018-10-19T04:47:27.462Z,86.41
2018-10-19T04:48:30.619Z,85.90
2018-10-19T04:49:33.328Z,86.31
2018-10-19T04:50:36.724Z,86.32
2018-10-19T04:51:39.396Z,85.83
2018-10-19T04:52:43.213Z,86.10
2018-10-19T04:53:45.982Z,85.57
2018-10-19T04:54:49.065Z,85.72
2018-10-19T04:55:51.808Z,85.52
2018-10-19T04:56:55.464Z,85.41
2018-10-19T04:57:58.302Z,85.28
2018-10-19T04:59:00.996Z,84.98
2018-10-19T05:00:03.731Z,85.12
2018-10-19T05:01:06.396Z,84.96
2018-10-19T05:02:09.980Z,84.99
2018-10-19T05:03:13.223Z,85.03
2018-10-19T05:04:15.884Z,85.50
2018-10-19T05:05:19.233Z,85.53
2018-10-19T05:06:22.296Z,85.18
2018-10-19T05:07:25.292Z,85.09
2018-10-19T05:08:28.788Z,85.48
2018-10-19T05:09:31.462Z,85.75
2018-10-19T05:10:37.627Z,85.91
2018-10-19T05:11:40.756Z,86.07
2018-10-19T05:12:43.599Z,86.04
2018-10-19T05:13:46.566Z,85.52
2018-10-19T05:14:49.239Z,86.07
2018-10-19T05:15:51.921Z,85.81
2018-10-19T05:16:54.642Z,85.92
2018-10-19T05:17:58.999Z,85.44
2018-10-19T05:19:01.722Z,85.50
2018-10-19T05:20:04.730Z,85.54
2018-10-19T05:21:07.447Z,85.49
2018-10-19T05:22:10.152Z,85.42
2018-10-19T05:23:14.443Z,85.42
2018-10-19T05:24:17.921Z,85.05
2018-10-19T05:25:20.594Z,85.26
2018-10-19T05:26:24.184Z,85.40
2018-10-19T05:27:26.922Z,85.39
2018-10-19T05:28:29.712Z,85.27
2018-10-19T05:29:32.429Z,85.21
2018-10-19T05:30:36.315Z,84.99
2018-10-19T05:44:41.871Z,84.55
2018-10-19T05:45:44.556Z,85.05
2018-10-19T05:46:47.313Z,85.32
2018-10-19T05:47:50.059Z,85.06
2018-10-19T05:48:53.225Z,85.16
2018-10-19T05:49:56.244Z,84.79
2018-10-19T05:50:58.962Z,85.14
2018-10-19T05:52:01.712Z,85.12
2018-10-19T05:53:04.451Z,84.72
2018-10-19T05:54:07.256Z,84.62
2018-10-19T05:55:11.447Z,84.07
2018-10-19T05:56:14.505Z,84.35
2018-10-19T05:57:18.934Z,84.04
2018-10-19T05:58:21.894Z,83.91
2018-10-19T05:59:25.061Z,84.32
2018-10-19T06:00:27.736Z,84.04
2018-10-19T06:01:30.483Z,84.08
2018-10-19T06:02:33.789Z,84.02
2018-10-19T06:03:37.133Z,84.06
2018-10-19T06:04:39.867Z,83.99
2018-10-19T06:05:42.696Z,84.49
2018-10-19T06:06:45.539Z,84.31
2018-10-19T06:07:48.218Z,84.49
2018-10-19T06:08:51.394Z,84.30
2018-10-19T06:09:54.345Z,84.57
2018-10-19T06:10:57.508Z,84.07
2018-10-19T06:12:00.286Z,84.27
2018-10-19T06:13:04.416Z,84.55
2018-10-19T06:14:07.184Z,84.52
2018-10-19T06:15:10.578Z,84.43
2018-10-19T06:16:13.278Z,84.42
2018-10-19T06:17:16.229Z,84.24
2018-10-19T06:18:19.746Z,84.31
2018-10-19T06:19:23.300Z,84.10
2018-10-19T06:20:26.114Z,85.19
2018-10-19T06:21:29.581Z,85.95
2018-10-19T06:22:33.537Z,86.03
2018-10-19T06:23:36.975Z,86.67
2018-10-19T06:24:39.669Z,86.44
2018-10-19T06:25:42.551Z,86.80
2018-10-19T06:26:45.380Z,87.28
2018-10-19T06:27:48.435Z,87.19
2018-10-19T06:28:51.372Z,87.24
2018-10-19T06:29:54.717Z,86.52
2018-10-19T06:30:57.509Z,87.12
2018-10-19T06:32:00.244Z,86.94
2018-10-19T06:33:03.064Z,86.74
2018-10-19T06:34:06.225Z,86.83
2018-10-19T06:35:09.132Z,86.25
2018-10-19T06:36:12.737Z,86.00
2018-10-19T06:37:15.390Z,85.82
2018-10-19T06:38:19.652Z,85.42
2018-10-19T06:39:24.648Z,85.49
2018-10-19T06:40:28.446Z,85.76
2018-10-19T06:41:31.987Z,85.10
2018-10-19T06:42:34.733Z,85.25
2018-10-19T06:43:38.519Z,85.28
2018-10-19T06:44:43.737Z,85.17
2018-10-19T06:45:50.633Z,85.45
2018-10-19T06:46:56.217Z,84.99
2018-10-19T06:47:59.861Z,85.16
2018-10-19T06:49:02.791Z,85.31
2018-10-19T06:50:05.514Z,85.61
2018-10-19T06:51:09.408Z,85.37
2018-10-19T06:52:12.416Z,84.37
2018-10-19T06:53:15.680Z,84.89
2018-10-19T06:54:19.700Z,84.70
2018-10-19T06:55:22.557Z,84.52
2018-10-19T06:56:25.265Z,84.98
2018-10-19T06:57:28.857Z,84.34
2018-10-19T06:58:31.594Z,84.31
2018-10-19T06:59:34.625Z,83.81
2018-10-19T07:00:37.297Z,83.56
2018-10-19T07:01:39.999Z,84.29
2018-10-19T07:02:42.699Z,84.30
2018-10-19T07:03:46.235Z,83.60
2018-10-19T07:04:48.907Z,84.29
2018-10-19T07:05:52.359Z,84.09
2018-10-19T07:06:55.139Z,83.96
2018-10-19T07:07:57.960Z,83.39
2018-10-19T07:09:00.957Z,83.76
2018-10-19T07:10:04.304Z,84.08
2018-10-19T07:11:07.148Z,83.49
2018-10-19T07:12:10.181Z,83.36
2018-10-19T07:13:12.942Z,83.07
2018-10-19T07:14:15.756Z,83.14
2018-10-19T07:15:19.158Z,83.33
2018-10-19T07:16:22.194Z,83.02
2018-10-19T07:17:24.963Z,83.13
2018-10-19T07:18:27.645Z,83.06
2018-10-19T07:19:30.377Z,83.31
2018-10-19T07:20:34.184Z,83.00
2018-10-19T07:21:38.319Z,82.80
2018-10-19T07:22:42.877Z,82.95
2018-10-19T07:23:46.581Z,83.21
2018-10-19T07:24:50.528Z,82.97
2018-10-19T07:25:53.284Z,83.06
2018-10-19T07:26:55.973Z,82.62
2018-10-19T07:27:58.798Z,82.94
2018-10-19T07:29:02.148Z,82.81
2018-10-19T07:30:04.959Z,82.52
2018-10-19T07:31:08.768Z,82.43
2018-10-19T07:32:11.535Z,82.61
2018-10-19T07:33:14.526Z,82.47
2018-10-19T07:34:17.793Z,82.56
2018-10-19T07:35:20.508Z,82.87
2018-10-19T07:36:23.285Z,82.13
2018-10-19T07:37:27.254Z,82.71
2018-10-19T07:38:30.286Z,82.64
2018-10-19T07:39:33.987Z,82.29
2018-10-19T07:40:36.788Z,82.96
2018-10-19T07:41:39.924Z,82.16
2018-10-19T07:42:42.698Z,82.17
2018-10-19T07:43:46.120Z,82.23
2018-10-19T07:44:49.120Z,81.97
2018-10-19T07:45:52.011Z,81.98
2018-10-19T07:46:54.769Z,82.01
2018-10-19T07:47:58.020Z,82.02
2018-10-19T07:49:00.526Z,81.28
2018-10-19T07:50:03.621Z,81.70
2018-10-19T07:51:06.637Z,81.78
2018-10-19T07:52:13.166Z,80.77
2018-10-19T07:53:16.725Z,81.32
2018-10-19T07:54:19.826Z,80.68
2018-10-19T07:55:24.301Z,81.17
2018-10-19T07:56:27.280Z,81.23
2018-10-19T07:57:31.446Z,81.08
2018-10-19T07:58:34.232Z,81.18
2018-10-19T07:59:37.837Z,81.09
2018-10-19T08:00:43.282Z,81.26
2018-10-19T08:01:46.229Z,80.92
2018-10-19T08:02:49.283Z,80.21
2018-10-19T08:03:52.624Z,80.23
2018-10-19T08:04:56.174Z,79.97
2018-10-19T08:05:58.933Z,80.01
2018-10-19T08:07:02.666Z,79.33
2018-10-19T08:08:06.475Z,78.71
2018-10-19T08:09:11.239Z,78.83
2018-10-19T08:10:15.663Z,78.73
2018-10-19T08:11:20.533Z,78.61
2018-10-19T08:12:23.336Z,77.39
2018-10-19T08:13:26.045Z,76.61
2018-10-19T08:14:28.924Z,75.33
2018-10-19T08:15:32.273Z,74.21
2018-10-19T08:16:35.961Z,73.32
2018-10-19T08:17:39.461Z,72.86
2018-10-19T08:18:42.917Z,72.31
2018-10-19T08:19:45.804Z,71.60
2018-10-19T08:20:48.689Z,70.53
2018-10-19T08:21:53.102Z,70.76
2018-10-19T08:22:56.381Z,70.44
2018-10-19T08:23:59.812Z,70.22
2018-10-19T08:25:08.662Z,69.39
2018-10-19T08:26:11.665Z,68.99
2018-10-19T08:27:14.444Z,68.53
2018-10-19T08:28:17.717Z,67.87
2018-10-19T08:29:21.991Z,68.95
2018-10-19T08:30:24.807Z,69.58
2018-10-19T08:31:27.657Z,69.29
2018-10-19T08:32:30.416Z,69.26
2018-10-19T08:33:33.242Z,69.79
2018-10-19T08:34:37.902Z,69.50
2018-10-19T08:35:40.790Z,70.58
2018-10-19T08:36:44.288Z,72.49
2018-10-19T08:37:47.566Z,72.38
2018-10-19T08:38:50.424Z,73.10
2018-10-19T08:39:53.712Z,72.29
2018-10-19T08:40:57.022Z,71.83
2018-10-19T08:41:59.874Z,72.70
2018-10-19T08:43:02.934Z,71.74
2018-10-19T08:44:05.700Z,71.44
2018-10-19T08:45:08.983Z,71.15
2018-10-19T08:46:18.919Z,71.48
2018-10-19T08:47:21.632Z,70.84
2018-10-19T08:48:28.980Z,70.25
2018-10-19T08:49:32.387Z,70.70
2018-10-19T08:50:36.990Z,70.53
2018-10-19T08:51:40.522Z,69.99
2018-10-19T08:52:45.475Z,70.19
2018-10-19T08:53:50.206Z,69.79
2018-10-19T08:54:53.000Z,69.52
2018-10-19T08:55:56.357Z,69.67
2018-10-19T08:57:00.623Z,70.55
2018-10-19T08:58:04.664Z,70.80
2018-10-19T08:59:08.216Z,70.78
2018-10-19T09:00:11.566Z,71.25
2018-10-19T09:01:15.477Z,72.01
2018-10-19T09:02:18.866Z,72.42
2018-10-19T09:03:22.647Z,72.38
2018-10-19T09:04:25.884Z,72.83
2018-10-19T09:05:30.676Z,72.16
2018-10-19T09:06:34.051Z,72.18
2018-10-19T09:07:38.190Z,72.45
2018-10-19T09:08:41.266Z,72.24
2018-10-19T09:09:44.805Z,72.40
2018-10-19T09:10:48.524Z,72.57
2018-10-19T09:11:52.636Z,73.43
2018-10-19T09:12:57.177Z,73.26
2018-10-19T09:14:00.344Z,74.28
2018-10-19T09:15:03.469Z,73.96
2018-10-19T09:16:06.240Z,74.32
2018-10-19T09:17:09.009Z,74.53
2018-10-19T09:18:12.395Z,74.79
2018-10-19T09:19:15.529Z,74.88
2018-10-19T09:20:18.985Z,74.76
2018-10-19T09:21:22.977Z,75.24
2018-10-19T09:22:25.819Z,75.64
2018-10-19T09:23:28.921Z,75.34
2018-10-19T09:24:35.780Z,76.70
2018-10-19T09:25:38.642Z,76.34
2018-10-19T09:26:42.742Z,75.92
2018-10-19T09:27:47.151Z,75.21
2018-10-19T09:28:50.627Z,75.35
2018-10-19T09:29:53.501Z,75.47
2018-10-19T09:31:00.004Z,75.50
2018-10-19T09:32:02.828Z,75.46
2018-10-19T09:33:06.149Z,74.99
2018-10-19T09:34:08.975Z,74.41
2018-10-19T09:35:13.509Z,74.33
2018-10-19T09:36:18.299Z,74.06
2018-10-19T09:37:21.283Z,73.61
2018-10-19T09:38:24.754Z,74.16
2018-10-19T09:39:27.471Z,73.02
2018-10-19T09:40:32.634Z,73.50
2018-10-19T09:41:35.351Z,73.96
2018-10-19T09:42:38.111Z,73.74
2018-10-19T09:43:42.178Z,72.96
2018-10-19T09:44:46.159Z,73.07
2018-10-19T09:45:49.894Z,73.12
2018-10-19T09:46:54.238Z,72.75
2018-10-19T09:47:57.199Z,72.69
2018-10-19T09:49:02.476Z,72.17
2018-10-19T09:50:06.290Z,72.42
2018-10-19T09:51:09.692Z,71.64
2018-10-19T09:52:13.601Z,72.20
2018-10-19T09:53:18.488Z,71.70
2018-10-19T09:54:22.013Z,71.75
2018-10-19T09:55:25.564Z,71.16
2018-10-19T09:56:29.359Z,71.24
2018-10-19T09:57:32.072Z,71.62
2018-10-19T09:58:37.235Z,71.75
2018-10-19T09:59:41.107Z,72.26
2018-10-19T10:00:48.664Z,71.37
2018-10-19T10:01:54.493Z,70.95
2018-10-19T10:02:59.478Z,70.56
2018-10-19T10:04:02.208Z,70.63
2018-10-19T10:05:06.168Z,71.78
2018-10-19T10:06:09.830Z,70.97
2018-10-19T10:07:13.416Z,71.49
2018-10-19T10:08:19.803Z,72.28
2018-10-19T10:09:23.682Z,71.91
2018-10-19T10:10:28.996Z,72.14
2018-10-19T10:11:32.187Z,71.73
2018-10-19T10:12:35.151Z,71.14
2018-10-19T10:13:39.100Z,71.68
2018-10-19T10:14:43.600Z,71.83
2018-10-19T10:15:47.329Z,72.55
2018-10-19T10:16:50.212Z,72.65
2018-10-19T10:17:56.544Z,71.93
2018-10-19T10:19:00.426Z,72.69
2018-10-19T10:20:06.580Z,72.99
2018-10-19T10:21:10.251Z,72.92
2018-10-19T10:22:16.723Z,72.98
2018-10-19T10:23:22.351Z,73.04
2018-10-19T10:24:26.539Z,72.42
2018-10-19T10:25:30.747Z,72.09
2018-10-19T10:26:34.410Z,72.02
2018-10-19T10:27:38.559Z,70.89
2018-10-19T10:28:41.904Z,70.71
2018-10-19T10:29:44.628Z,71.00
2018-10-19T10:30:47.594Z,71.72
2018-10-19T10:43:48.066Z,69.60
2018-10-19T10:44:52.131Z,69.91
2018-10-19T10:45:55.714Z,69.05
2018-10-19T10:47:04.810Z,69.60
2018-10-19T10:48:11.879Z,69.62
2018-10-19T10:49:23.966Z,69.58
2018-10-19T10:50:27.319Z,69.42
2018-10-19T10:51:30.528Z,69.84
2018-10-19T10:52:38.695Z,69.92
2018-10-19T10:53:46.628Z,70.74
2018-10-19T10:54:52.253Z,71.12
2018-10-19T10:55:55.595Z,71.21
2018-10-19T10:56:59.352Z,70.71
2018-10-19T10:58:02.427Z,70.64
2018-10-19T10:59:05.386Z,70.56
2018-10-19T11:00:09.082Z,70.38
2018-10-19T11:01:13.262Z,70.52
2018-10-19T11:02:23.373Z,69.92
2018-10-19T11:03:27.898Z,69.33
2018-10-19T11:04:31.020Z,69.01
2018-10-19T11:05:35.960Z,69.59
2018-10-19T11:06:39.051Z,68.85
2018-10-19T11:07:42.334Z,69.78
2018-10-19T11:08:45.039Z,69.27
2018-10-19T11:09:47.803Z,69.52
2018-10-19T11:12:00.617Z,67.85
2018-10-19T11:13:04.049Z,68.21
2018-10-19T11:14:08.519Z,68.25
2018-10-19T11:15:11.836Z,68.70
2018-10-19T11:16:15.669Z,68.37
2018-10-19T11:17:20.690Z,68.92
2018-10-19T11:18:24.397Z,69.36
2018-10-19T11:19:29.097Z,68.93
2018-10-19T11:20:32.700Z,69.68
2018-10-19T11:21:39.109Z,69.55
2018-10-19T11:22:42.568Z,70.30
2018-10-19T11:23:45.260Z,69.76
2018-10-19T11:24:48.691Z,70.36
2018-10-19T11:25:51.573Z,70.70
2018-10-19T11:26:54.891Z,70.30
2018-10-19T11:27:58.959Z,69.83
2018-10-19T11:29:02.290Z,70.58
2018-10-19T11:30:07.777Z,70.51
2018-10-19T11:31:11.461Z,69.70
2018-10-19T11:32:16.696Z,70.09
2018-10-19T11:33:23.267Z,70.00
2018-10-19T11:34:30.366Z,69.73
2018-10-19T11:35:35.436Z,69.35
2018-10-19T11:36:42.651Z,68.62
2018-10-19T11:37:47.396Z,69.21
2018-10-19T11:38:53.380Z,68.69
2018-10-19T11:40:01.222Z,68.92
2018-10-19T11:41:05.392Z,69.19
2018-10-19T11:42:19.514Z,69.38
2018-10-19T11:43:22.248Z,69.64
2018-10-19T11:44:31.582Z,69.46
2018-10-19T11:45:37.438Z,69.61
2018-10-19T11:46:41.309Z,69.29
2018-10-19T11:47:49.193Z,69.55
2018-10-19T11:48:53.376Z,68.81
2018-10-19T11:49:56.578Z,69.42
2018-10-19T11:51:00.264Z,69.38
2018-10-19T11:52:03.694Z,69.18
2018-10-19T11:53:07.179Z,69.82
2018-10-19T11:54:24.245Z,69.46
2018-10-19T11:55:29.371Z,69.34
2018-10-19T11:56:33.866Z,68.71
2018-10-19T11:57:41.553Z,69.25
2018-10-19T11:58:46.349Z,69.58
2018-10-19T11:59:51.719Z,69.01
2018-10-19T12:00:55.444Z,69.65
2018-10-19T12:01:58.370Z,68.72
2018-10-19T12:03:01.871Z,69.25
2018-10-19T12:04:06.298Z,69.12
2018-10-19T12:05:10.279Z,68.29
2018-10-19T12:06:12.989Z,68.59
2018-10-19T12:07:16.035Z,68.74
2018-10-19T12:08:21.239Z,68.58
2018-10-19T12:09:25.362Z,67.88
2018-10-19T12:10:28.180Z,67.98
2018-10-19T12:11:31.458Z,68.89
2018-10-19T12:12:36.383Z,68.64
2018-10-19T12:13:40.389Z,67.78
2018-10-19T12:14:43.434Z,67.81
2018-10-19T12:15:53.305Z,67.58
2018-10-19T12:16:56.732Z,67.32
2018-10-19T12:18:00.517Z,66.54
2018-10-19T12:19:05.530Z,67.25
2018-10-19T12:20:09.530Z,66.80
2018-10-19T12:21:18.416Z,66.88
2018-10-19T12:22:21.201Z,65.99
2018-10-19T12:23:26.605Z,65.86
2018-10-19T12:24:35.226Z,65.84
2018-10-19T12:25:39.046Z,65.72
2018-10-19T12:26:44.638Z,65.37
2018-10-19T12:27:48.084Z,66.50
2018-10-19T12:28:53.265Z,66.50
2018-10-19T12:29:58.838Z,65.88
2018-10-19T12:31:03.290Z,65.94
2018-10-19T12:32:05.979Z,65.96
2018-10-19T12:33:08.807Z,66.16
2018-10-19T12:34:11.501Z,66.81
2018-10-19T12:35:15.442Z,66.25
2018-10-19T12:36:19.602Z,67.56
2018-10-19T12:37:22.329Z,66.94
2018-10-19T12:38:25.034Z,66.73
2018-10-19T12:39:28.553Z,66.17
2018-10-19T12:40:31.324Z,66.68
2018-10-19T12:41:36.915Z,66.60
2018-10-19T12:42:40.425Z,66.15
2018-10-19T12:43:43.318Z,65.62
2018-10-19T12:44:46.011Z,66.19
2018-10-19T12:45:49.611Z,65.47
2018-10-19T12:46:55.726Z,64.40
2018-10-19T12:47:58.674Z,65.38
2018-10-19T12:49:04.626Z,64.76
2018-10-19T12:50:07.449Z,65.49
2018-10-19T12:51:10.891Z,64.71
2018-10-19T12:52:13.638Z,64.70
2018-10-19T12:53:16.830Z,63.96
2018-10-19T12:54:24.478Z,63.82
2018-10-19T12:55:27.462Z,63.00
2018-10-19T12:56:32.148Z,63.08
2018-10-19T12:57:35.716Z,62.51
2018-10-19T12:58:38.448Z,62.54
2018-10-19T12:59:42.262Z,62.15
2018-10-19T13:00:47.251Z,62.04
2018-10-19T13:01:51.753Z,62.81
2018-10-19T13:02:54.537Z,61.74
2018-10-19T13:03:57.700Z,62.60
2018-10-19T13:05:00.393Z,62.12
2018-10-19T13:06:03.145Z,62.41
2018-10-19T13:07:06.068Z,62.74
2018-10-19T13:08:09.150Z,63.46
2018-10-19T13:09:12.791Z,63.24
2018-10-19T13:10:16.757Z,64.05
2018-10-19T13:11:19.640Z,63.54
2018-10-19T13:12:22.370Z,63.61
2018-10-19T13:13:25.723Z,63.93
2018-10-19T13:14:29.851Z,63.47
2018-10-19T13:15:32.568Z,63.34
2018-10-19T13:16:35.311Z,63.31
2018-10-19T13:17:38.063Z,62.94
2018-10-19T13:18:41.821Z,63.56
2018-10-19T13:19:44.911Z,62.69
2018-10-19T13:20:48.385Z,62.98
2018-10-19T13:21:51.159Z,62.80
2018-10-19T13:22:53.849Z,62.95
2018-10-19T13:23:57.249Z,62.70
2018-10-19T13:25:00.789Z,62.24
2018-10-19T13:26:04.039Z,62.14
2018-10-19T13:27:09.407Z,61.88
2018-10-19T13:28:12.119Z,61.65
2018-10-19T13:29:15.640Z,61.80
2018-10-19T13:30:19.325Z,61.70
2018-10-19T13:31:22.562Z,62.04
2018-10-19T13:32:26.011Z,62.17
2018-10-19T13:33:29.196Z,61.62
2018-10-19T13:34:31.916Z,61.26
2018-10-19T13:35:34.609Z,61.56
2018-10-19T13:36:38.044Z,61.65
2018-10-19T13:37:40.781Z,62.39
2018-10-19T13:38:43.773Z,62.72
2018-10-19T13:39:47.843Z,61.86
2018-10-19T13:40:56.849Z,61.31
2018-10-19T13:41:59.630Z,62.08
2018-10-19T13:43:02.418Z,62.07
2018-10-19T13:44:05.199Z,61.58
2018-10-19T13:45:08.052Z,60.91
2018-10-19T13:46:11.715Z,61.59
2018-10-19T13:47:14.743Z,60.81
2018-10-19T13:48:19.313Z,61.04
2018-10-19T13:49:22.721Z,60.60
2018-10-19T13:50:27.389Z,61.78
2018-10-19T13:51:30.537Z,60.80
2018-10-19T13:52:33.411Z,61.52
2018-10-19T13:53:36.186Z,61.39
2018-10-19T13:54:40.413Z,61.33
2018-10-19T13:55:44.338Z,60.47
2018-10-19T13:56:47.208Z,61.10
2018-10-19T13:57:49.987Z,60.31
2018-10-19T13:58:53.636Z,61.09
2018-10-19T13:59:56.547Z,60.76
2018-10-19T14:00:59.252Z,61.50
2018-10-19T14:02:02.481Z,60.67
2018-10-19T14:03:05.286Z,61.51
2018-10-19T14:04:08.646Z,61.35
2018-10-19T14:05:11.854Z,61.19